createdAt,value
2022-12-03T00:00:12.749Z,26.10
2022-12-03T00:01:35.027Z,26.50
2022-12-03T00:02:36.869Z,24.87
2022-12-03T00:03:38.966Z,26.09
2022-12-03T00:04:41.224Z,26.20
2022-12-03T00:05:48.859Z,26.77
2022-12-03T00:06:51.139Z,24.58
2022-12-03T00:07:53.150Z,26.78
2022-12-03T00:08:54.991Z,26.69
2022-12-03T00:09:56.766Z,27.36
2022-12-03T00:10:58.485Z,27.96
2022-12-03T00:12:00.273Z,27.48
2022-12-03T00:13:02.001Z,27.86
2022-12-03T00:14:03.791Z,29.75
2022-12-03T00:15:07.839Z,29.68
2022-12-03T00:16:09.734Z,29.04
2022-12-03T00:17:11.507Z,28.75
2022-12-03T00:18:13.441Z,28.04
2022-12-03T00:19:15.258Z,28.42
2022-12-03T00:20:21.007Z,27.78
2022-12-03T00:21:24.632Z,27.92
2022-12-03T00:22:26.729Z,27.76
2022-12-03T00:23:28.628Z,26.50
2022-12-03T00:24:30.381Z,27.76
2022-12-03T00:25:32.155Z,28.47
2022-12-03T00:26:33.885Z,27.33
2022-12-03T00:27:35.608Z,26.97
2022-12-03T00:28:37.734Z,27.59
2022-12-03T00:29:39.457Z,28.29
2022-12-03T00:30:41.290Z,27.81
2022-12-03T00:31:45.440Z,28.78
2022-12-03T00:32:47.287Z,28.07
2022-12-03T00:33:50.118Z,27.93
2022-12-03T00:34:52.303Z,27.39
2022-12-03T00:35:54.714Z,25.94
2022-12-03T00:36:56.486Z,26.13
2022-12-03T00:37:58.229Z,26.05
2022-12-03T00:38:59.995Z,27.23
2022-12-03T00:40:03.622Z,27.94
2022-12-03T00:41:05.507Z,26.66
2022-12-03T00:42:07.256Z,26.41
2022-12-03T00:43:08.998Z,26.92
2022-12-03T00:44:11.955Z,28.76
2022-12-03T00:45:13.757Z,28.48
2022-12-03T00:46:19.811Z,28.71
2022-12-03T00:47:23.206Z,28.45
2022-12-03T00:48:25.011Z,27.46
2022-12-03T00:49:26.955Z,28.65
2022-12-03T00:50:28.931Z,29.44
2022-12-03T00:51:30.734Z,29.62
2022-12-03T00:52:32.548Z,30.81
2022-12-03T00:53:35.676Z,29.69
2022-12-03T00:54:37.517Z,29.13
2022-12-03T00:55:39.249Z,29.96
2022-12-03T00:56:41.023Z,28.81
2022-12-03T00:57:42.877Z,29.42
2022-12-03T00:58:44.724Z,30.33
2022-12-03T00:59:46.635Z,30.69
2022-12-03T01:00:48.361Z,30.67
2022-12-03T01:01:50.247Z,29.52
2022-12-03T01:02:53.117Z,28.48
2022-12-03T01:03:54.917Z,30.06
2022-12-03T01:04:57.121Z,30.32
2022-12-03T01:05:59.146Z,31.85
2022-12-03T01:07:01.245Z,31.92
2022-12-03T01:08:03.220Z,30.76
2022-12-03T01:09:05.738Z,30.20
2022-12-03T01:10:08.298Z,30.43
2022-12-03T01:11:30.044Z,30.98
2022-12-03T01:12:31.843Z,31.80
2022-12-03T01:13:33.617Z,30.25
2022-12-03T01:14:35.382Z,30.33
2022-12-03T01:15:37.234Z,31.49
2022-12-03T01:16:40.281Z,30.02
2022-12-03T01:17:42.106Z,29.73
2022-12-03T01:18:46.301Z,30.08
2022-12-03T01:19:48.625Z,32.36
2022-12-03T01:20:50.588Z,31.43
2022-12-03T01:21:52.423Z,31.32
2022-12-03T01:22:54.205Z,31.89
2022-12-03T01:23:56.741Z,30.99
2022-12-03T01:24:58.708Z,32.10
2022-12-03T01:26:00.584Z,31.51
2022-12-03T01:27:02.325Z,31.28
2022-12-03T01:28:04.117Z,32.30
2022-12-03T01:29:06.974Z,30.10
2022-12-03T01:30:11.020Z,29.72
2022-12-03T01:31:31.490Z,31.11
2022-12-03T01:32:35.330Z,30.45
2022-12-03T01:33:37.082Z,30.64
2022-12-03T01:34:38.805Z,30.44
2022-12-03T01:35:40.559Z,31.41
2022-12-03T01:36:42.333Z,34.01
2022-12-03T01:37:44.085Z,31.92
2022-12-03T01:38:45.832Z,32.35
2022-12-03T01:39:49.171Z,33.52
2022-12-03T01:40:51.331Z,33.57
2022-12-03T01:41:55.232Z,35.97
2022-12-03T01:42:56.993Z,34.41
2022-12-03T01:44:00.246Z,35.88
2022-12-03T01:45:04.266Z,32.31
2022-12-03T01:46:06.603Z,31.58
2022-12-03T01:47:16.037Z,32.64
2022-12-03T01:48:18.066Z,33.52
2022-12-03T01:49:26.119Z,32.19
2022-12-03T01:50:33.135Z,33.41
2022-12-03T01:51:35.039Z,32.63
2022-12-03T01:52:39.383Z,31.63
2022-12-03T01:53:42.043Z,33.08
2022-12-03T01:54:52.512Z,32.93
2022-12-03T01:55:54.598Z,33.28
2022-12-03T01:56:56.642Z,34.08
2022-12-03T01:58:01.889Z,34.98
2022-12-03T01:59:03.736Z,36.28
2022-12-03T02:00:07.300Z,34.30
2022-12-03T02:01:14.696Z,34.83
2022-12-03T02:02:24.148Z,32.79
2022-12-03T02:03:26.598Z,34.64
2022-12-03T02:04:29.809Z,34.12
2022-12-03T02:05:34.307Z,33.62
2022-12-03T02:06:36.077Z,31.90
2022-12-03T02:07:37.931Z,31.76
2022-12-03T02:08:40.918Z,30.94
2022-12-03T02:09:42.695Z,31.35
2022-12-03T02:10:44.596Z,31.78
2022-12-03T02:11:50.517Z,34.85
2022-12-03T02:13:01.276Z,33.30
2022-12-03T02:14:12.260Z,33.85
2022-12-03T02:15:14.464Z,33.04
2022-12-03T02:16:16.552Z,33.23
2022-12-03T02:17:18.481Z,33.09
2022-12-03T02:18:20.367Z,33.35
2022-12-03T02:19:27.751Z,33.11
2022-12-03T02:20:35.982Z,33.46
2022-12-03T02:21:50.657Z,34.38
2022-12-03T02:23:26.200Z,32.49
2022-12-03T02:24:48.174Z,33.78
2022-12-03T02:25:49.964Z,34.45
2022-12-03T02:26:51.873Z,32.10
2022-12-03T02:27:55.740Z,32.00
2022-12-03T02:28:57.617Z,31.19
2022-12-03T02:29:59.432Z,32.32
2022-12-03T02:31:01.266Z,32.05
2022-12-03T02:32:03.229Z,33.55
2022-12-03T02:33:05.173Z,33.90
2022-12-03T02:34:07.612Z,31.17
2022-12-03T02:35:22.197Z,32.81
2022-12-03T02:36:24.509Z,34.39
2022-12-03T02:37:32.356Z,32.37
2022-12-03T02:38:36.249Z,32.62
2022-12-03T02:39:44.198Z,31.68
2022-12-03T02:40:49.482Z,32.47
2022-12-03T02:42:09.916Z,33.08
2022-12-03T02:43:16.673Z,31.64
2022-12-03T02:44:19.089Z,31.89
2022-12-03T02:45:36.148Z,32.68
2022-12-03T02:46:38.059Z,31.62
2022-12-03T02:47:51.346Z,33.31
2022-12-03T02:48:53.330Z,33.37
2022-12-03T02:49:56.692Z,34.28
2022-12-03T02:51:04.383Z,34.47
2022-12-03T02:52:06.346Z,32.43
2022-12-03T02:53:15.126Z,33.07
2022-12-03T02:54:16.895Z,32.99
2022-12-03T02:55:19.975Z,32.43
2022-12-03T02:56:27.799Z,32.34
2022-12-03T02:57:29.842Z,32.91
2022-12-03T02:58:33.893Z,34.65
2022-12-03T02:59:35.877Z,33.54
2022-12-03T03:00:39.095Z,31.96
2022-12-03T03:01:41.291Z,32.23
2022-12-03T03:02:46.259Z,31.99
2022-12-03T03:03:50.645Z,32.13
2022-12-03T03:04:52.672Z,30.49
2022-12-03T03:05:59.331Z,32.26
2022-12-03T03:07:01.206Z,33.18
2022-12-03T03:08:04.220Z,32.61
2022-12-03T03:09:06.346Z,33.64
2022-12-03T03:10:14.470Z,34.13
2022-12-03T03:11:16.485Z,32.37
2022-12-03T03:12:18.459Z,32.83
2022-12-03T03:13:21.435Z,32.83
2022-12-03T03:14:23.199Z,33.00
2022-12-03T03:15:25.601Z,34.17
2022-12-03T03:16:27.949Z,36.43
2022-12-03T03:17:30.192Z,32.87
2022-12-03T03:18:33.581Z,32.69
2022-12-03T03:19:35.583Z,32.60
2022-12-03T03:20:38.683Z,30.05
2022-12-03T03:21:40.512Z,32.13
2022-12-03T03:22:43.202Z,32.11
2022-12-03T03:23:44.965Z,33.60
2022-12-03T03:24:46.769Z,32.50
2022-12-03T03:26:00.134Z,31.81
2022-12-03T03:27:02.259Z,32.09
2022-12-03T03:28:05.962Z,33.35
2022-12-03T03:29:08.243Z,34.69
2022-12-03T03:30:11.438Z,36.34
2022-12-03T03:31:18.147Z,35.51
2022-12-03T03:32:20.996Z,34.62
2022-12-03T03:33:23.112Z,33.80
2022-12-03T03:34:26.936Z,34.61
2022-12-03T03:35:28.934Z,33.34
2022-12-03T03:36:31.769Z,32.72
2022-12-03T03:37:33.900Z,32.38
2022-12-03T03:38:38.049Z,33.39
2022-12-03T03:39:40.720Z,34.32
2022-12-03T03:40:43.433Z,32.59
2022-12-03T03:41:46.939Z,32.66
2022-12-03T03:42:49.295Z,32.82
2022-12-03T03:43:51.475Z,33.73
2022-12-03T03:44:53.646Z,33.88
2022-12-03T03:45:56.298Z,33.31
2022-12-03T03:46:58.760Z,33.22
2022-12-03T03:48:01.695Z,32.70
2022-12-03T03:49:05.824Z,34.29
2022-12-03T03:50:10.231Z,34.68
2022-12-03T03:51:13.504Z,33.47
2022-12-03T03:52:15.562Z,33.86
2022-12-03T03:53:18.603Z,35.45
2022-12-03T03:54:21.256Z,33.66
2022-12-03T03:55:23.894Z,33.27
2022-12-03T03:56:25.968Z,34.23
2022-12-03T03:57:27.878Z,33.55
2022-12-03T03:58:29.854Z,32.37
2022-12-03T03:59:31.888Z,31.77
2022-12-03T04:00:35.834Z,34.48
2022-12-03T04:01:38.168Z,34.43
2022-12-03T04:02:41.104Z,33.72
2022-12-03T04:03:42.927Z,34.12
2022-12-03T04:04:44.802Z,32.66
2022-12-03T04:05:47.589Z,36.19
2022-12-03T04:06:49.799Z,34.37
2022-12-03T04:07:52.010Z,33.67
2022-12-03T04:08:53.899Z,33.35
2022-12-03T04:09:55.758Z,35.00
2022-12-03T04:11:16.081Z,34.69
2022-12-03T04:12:36.254Z,35.12
2022-12-03T04:13:38.263Z,33.10
2022-12-03T04:14:40.025Z,32.27
2022-12-03T04:15:41.771Z,32.47
2022-12-03T04:16:43.521Z,31.92
2022-12-03T04:17:45.287Z,31.02
2022-12-03T04:18:47.361Z,33.97
2022-12-03T04:19:49.090Z,32.15
2022-12-03T04:20:50.837Z,31.14
2022-12-03T04:22:11.510Z,32.86
2022-12-03T04:23:13.232Z,33.72
2022-12-03T04:24:14.957Z,33.66
2022-12-03T04:25:35.517Z,35.98
2022-12-03T04:26:56.439Z,34.24
2022-12-03T04:28:16.741Z,33.56
2022-12-03T04:29:20.301Z,33.98
2022-12-03T04:30:22.081Z,32.78
2022-12-03T04:31:42.431Z,31.85
2022-12-03T04:33:02.395Z,31.70
2022-12-03T04:34:22.458Z,31.72
2022-12-03T04:35:42.661Z,31.68
2022-12-03T04:36:44.603Z,33.59
2022-12-03T04:37:46.324Z,32.71
2022-12-03T04:38:48.755Z,32.74
2022-12-03T04:39:50.852Z,33.20
2022-12-03T04:41:01.680Z,32.14
2022-12-03T04:42:04.345Z,32.77
2022-12-03T04:43:06.119Z,33.21
2022-12-03T04:44:26.652Z,33.43
2022-12-03T04:45:28.412Z,34.00
2022-12-03T04:46:30.252Z,32.73
2022-12-03T04:47:35.496Z,33.67
2022-12-03T04:48:41.495Z,32.14
2022-12-03T04:49:46.425Z,31.08
2022-12-03T04:50:48.268Z,32.38
2022-12-03T04:51:50.056Z,31.65
2022-12-03T04:52:51.840Z,30.53
2022-12-03T04:53:53.582Z,32.00
2022-12-03T04:54:55.520Z,32.12
2022-12-03T04:55:57.521Z,32.31
2022-12-03T04:56:59.331Z,32.21
2022-12-03T04:58:01.050Z,32.89
2022-12-03T04:59:02.959Z,31.55
2022-12-03T05:00:06.077Z,32.40
2022-12-03T05:01:07.863Z,31.90
2022-12-03T05:02:09.876Z,31.69
2022-12-03T05:03:11.930Z,31.69
2022-12-03T05:04:15.078Z,31.75
2022-12-03T05:05:17.216Z,32.09
2022-12-03T05:06:18.984Z,32.86
2022-12-03T05:07:20.773Z,30.14
2022-12-03T05:08:22.569Z,31.56
2022-12-03T05:09:24.383Z,34.74
2022-12-03T05:10:26.249Z,51.26
2022-12-03T05:11:28.082Z,96.24
2022-12-03T05:12:29.831Z,111.15
2022-12-03T05:13:31.555Z,86.58
2022-12-03T05:14:33.303Z,95.92
2022-12-03T05:15:35.039Z,98.81
2022-12-03T05:16:37.181Z,84.04
2022-12-03T05:17:39.002Z,67.77
2022-12-03T05:18:40.732Z,45.25
2022-12-03T05:20:01.095Z,34.32
2022-12-03T05:21:02.969Z,35.26
2022-12-03T05:22:04.937Z,38.15
2022-12-03T05:23:06.830Z,44.31
2022-12-03T05:24:08.736Z,41.66
2022-12-03T05:25:10.746Z,42.19
2022-12-03T05:26:12.563Z,38.93
2022-12-03T05:27:16.618Z,34.58
2022-12-03T05:28:23.148Z,31.85
2022-12-03T05:29:24.945Z,32.92
2022-12-03T05:30:26.776Z,33.76
2022-12-03T05:31:28.832Z,33.79
2022-12-03T05:32:31.009Z,33.45
2022-12-03T05:33:32.761Z,34.03
2022-12-03T05:34:34.598Z,34.19
2022-12-03T05:35:36.385Z,34.28
2022-12-03T05:36:38.094Z,32.96
2022-12-03T05:37:39.883Z,34.70
2022-12-03T05:38:41.699Z,33.88
2022-12-03T05:39:43.488Z,36.06
2022-12-03T05:40:46.731Z,68.13
2022-12-03T05:42:06.968Z,139.58
2022-12-03T05:43:08.762Z,102.51
2022-12-03T05:44:10.565Z,74.09
2022-12-03T05:45:12.301Z,47.12
2022-12-03T05:46:14.173Z,43.76
2022-12-03T05:47:15.973Z,60.08
2022-12-03T05:48:18.726Z,63.26
2022-12-03T05:49:20.581Z,44.97
2022-12-03T05:50:26.005Z,36.12
2022-12-03T05:51:29.476Z,36.12
2022-12-03T05:52:32.159Z,35.30
2022-12-03T05:53:33.916Z,39.89
2022-12-03T05:54:35.907Z,46.71
2022-12-03T05:55:37.889Z,44.54
2022-12-03T05:56:39.693Z,37.09
2022-12-03T05:57:41.470Z,34.44
2022-12-03T05:58:43.217Z,34.56
2022-12-03T05:59:45.056Z,34.22
2022-12-03T06:00:46.840Z,32.58
2022-12-03T06:01:48.775Z,33.16
2022-12-03T06:02:51.066Z,31.84
2022-12-03T06:03:53.117Z,33.36
2022-12-03T06:04:55.411Z,35.93
2022-12-03T06:05:57.400Z,40.62
2022-12-03T06:06:59.190Z,39.57
2022-12-03T06:08:01.167Z,36.90
2022-12-03T06:09:03.410Z,33.62
2022-12-03T06:10:09.853Z,35.44
2022-12-03T06:11:11.647Z,34.48
2022-12-03T06:12:13.518Z,34.92
2022-12-03T06:13:15.299Z,34.47
2022-12-03T06:14:17.041Z,36.80
2022-12-03T06:15:19.527Z,34.11
2022-12-03T06:16:21.862Z,33.37
2022-12-03T06:17:23.680Z,31.66
2022-12-03T06:18:25.443Z,30.96
2022-12-03T06:19:27.257Z,30.44
2022-12-03T06:20:28.989Z,30.95
2022-12-03T06:21:30.787Z,31.54
2022-12-03T06:22:32.822Z,31.59
2022-12-03T06:23:34.653Z,31.61
2022-12-03T06:24:36.384Z,29.88
2022-12-03T06:25:38.643Z,32.80
2022-12-03T06:26:40.373Z,31.95
2022-12-03T06:27:42.201Z,32.71
2022-12-03T06:28:46.442Z,38.25
2022-12-03T06:29:48.192Z,37.27
2022-12-03T06:30:49.943Z,35.15
2022-12-03T06:31:51.874Z,35.02
2022-12-03T06:32:53.666Z,35.49
2022-12-03T06:33:55.462Z,34.22
2022-12-03T06:34:57.197Z,34.10
2022-12-03T06:35:59.002Z,33.83
2022-12-03T06:37:01.158Z,32.97
2022-12-03T06:38:03.055Z,31.73
2022-12-03T06:39:04.807Z,34.38
2022-12-03T06:40:07.289Z,33.62
2022-12-03T06:41:09.082Z,34.38
2022-12-03T06:42:10.837Z,32.12
2022-12-03T06:43:12.610Z,31.72
2022-12-03T06:44:14.382Z,31.77
2022-12-03T06:45:16.268Z,32.93
2022-12-03T06:46:18.186Z,34.37
2022-12-03T06:47:19.975Z,33.72
2022-12-03T06:48:21.973Z,34.49
2022-12-03T06:49:23.673Z,38.89
2022-12-03T06:50:25.400Z,39.05
2022-12-03T06:51:27.296Z,36.02
2022-12-03T06:52:29.160Z,35.16
2022-12-03T06:53:30.857Z,34.02
2022-12-03T06:54:32.663Z,32.95
2022-12-03T06:55:34.626Z,35.19
2022-12-03T06:56:43.394Z,34.58
2022-12-03T06:57:46.796Z,32.34
2022-12-03T06:58:48.746Z,35.26
2022-12-03T06:59:50.684Z,33.04
2022-12-03T07:00:52.694Z,34.97
2022-12-03T07:01:54.552Z,34.27
2022-12-03T07:02:56.341Z,34.08
2022-12-03T07:03:58.175Z,37.83
2022-12-03T07:05:00.270Z,36.15
2022-12-03T07:06:02.321Z,35.72
2022-12-03T07:07:04.066Z,32.91
2022-12-03T07:08:06.028Z,33.09
2022-12-03T07:09:07.868Z,37.66
2022-12-03T07:10:09.881Z,36.42
2022-12-03T07:11:31.177Z,33.80
2022-12-03T07:12:33.054Z,37.85
2022-12-03T07:13:34.826Z,39.10
2022-12-03T07:14:36.649Z,34.13
2022-12-03T07:15:38.423Z,33.63
2022-12-03T07:16:40.397Z,37.14
2022-12-03T07:17:42.440Z,36.81
2022-12-03T07:18:44.425Z,31.28
2022-12-03T07:19:46.444Z,30.35
2022-12-03T07:20:48.914Z,30.46
2022-12-03T07:21:50.730Z,34.67
2022-12-03T07:22:52.508Z,35.93
2022-12-03T07:23:54.196Z,34.34
2022-12-03T07:24:56.243Z,34.71
2022-12-03T07:25:58.101Z,33.96
2022-12-03T07:26:59.814Z,32.92
2022-12-03T07:28:01.621Z,32.09
2022-12-03T07:29:04.131Z,31.34
2022-12-03T07:30:07.889Z,32.66
2022-12-03T07:31:09.808Z,31.26
2022-12-03T07:32:11.646Z,31.82
2022-12-03T07:33:13.430Z,30.77
2022-12-03T07:34:15.205Z,31.02
2022-12-03T07:35:17.395Z,32.19
2022-12-03T07:36:19.241Z,29.97
2022-12-03T07:37:23.310Z,30.10
2022-12-03T07:38:25.560Z,30.71
2022-12-03T07:39:27.325Z,32.71
2022-12-03T07:40:29.072Z,30.85
2022-12-03T07:41:31.095Z,32.36
2022-12-03T07:42:32.919Z,31.69
2022-12-03T07:43:34.726Z,31.09
2022-12-03T07:44:36.535Z,31.98
2022-12-03T07:45:38.316Z,32.45
2022-12-03T07:46:40.523Z,32.95
2022-12-03T07:47:42.337Z,31.36
2022-12-03T07:48:45.375Z,32.58
2022-12-03T07:49:47.126Z,32.89
2022-12-03T07:50:48.920Z,39.20
2022-12-03T07:51:54.561Z,47.05
2022-12-03T07:52:56.661Z,38.12
2022-12-03T07:53:58.511Z,31.46
2022-12-03T07:55:00.329Z,30.87
2022-12-03T07:56:03.922Z,30.23
2022-12-03T07:57:05.680Z,32.03
2022-12-03T07:58:07.374Z,31.72
2022-12-03T07:59:09.219Z,32.86
2022-12-03T08:00:12.448Z,34.55
2022-12-03T08:01:14.305Z,33.89
2022-12-03T08:02:21.283Z,34.37
2022-12-03T08:03:24.849Z,33.63
2022-12-03T08:04:26.657Z,35.97
2022-12-03T08:05:29.781Z,38.05
2022-12-03T08:06:31.719Z,37.62
2022-12-03T08:07:33.593Z,37.59
2022-12-03T08:08:35.481Z,34.49
2022-12-03T08:09:40.825Z,32.52
2022-12-03T08:10:42.582Z,30.92
2022-12-03T08:11:47.996Z,33.47
2022-12-03T08:12:49.751Z,31.26
2022-12-03T08:13:51.553Z,32.39
2022-12-03T08:14:53.615Z,29.54
2022-12-03T08:15:57.518Z,30.29
2022-12-03T08:16:59.357Z,34.51
2022-12-03T08:18:15.962Z,33.52
2022-12-03T08:19:18.201Z,34.93
2022-12-03T08:20:23.811Z,34.48
2022-12-03T08:21:37.502Z,32.50
2022-12-03T08:22:41.512Z,33.49
2022-12-03T08:23:43.644Z,33.80
2022-12-03T08:24:45.473Z,35.18
2022-12-03T08:25:48.876Z,35.59
2022-12-03T08:26:50.691Z,35.09
2022-12-03T08:27:57.897Z,33.87
2022-12-03T08:28:59.736Z,34.40
2022-12-03T08:30:04.738Z,34.11
2022-12-03T08:31:09.379Z,34.90
2022-12-03T08:32:13.092Z,33.54
2022-12-03T08:33:26.900Z,32.59
2022-12-03T08:34:40.303Z,33.70
2022-12-03T08:35:49.665Z,32.44
2022-12-03T08:36:58.619Z,34.16
2022-12-03T08:38:12.884Z,33.14
2022-12-03T08:39:33.161Z,33.39
2022-12-03T08:40:39.040Z,35.33
2022-12-03T08:41:59.678Z,35.58
2022-12-03T08:43:01.459Z,32.55
2022-12-03T08:44:32.472Z,34.07
2022-12-03T08:45:40.191Z,34.80
2022-12-03T08:46:42.231Z,34.30
2022-12-03T08:47:44.406Z,33.94
2022-12-03T08:48:49.045Z,32.78
2022-12-03T08:49:55.886Z,34.11
2022-12-03T08:51:04.898Z,33.81
2022-12-03T08:52:18.927Z,34.04
2022-12-03T08:53:47.566Z,34.73
2022-12-03T08:54:54.826Z,35.77
2022-12-03T08:56:16.362Z,34.05
2022-12-03T08:57:32.887Z,34.61
2022-12-03T08:58:43.927Z,37.09
2022-12-03T08:59:46.522Z,34.28
2022-12-03T09:00:58.432Z,34.35
2022-12-03T09:02:00.294Z,34.10
2022-12-03T09:03:02.038Z,38.71
2022-12-03T09:04:30.286Z,37.35
2022-12-03T09:05:32.571Z,36.86
2022-12-03T09:06:34.410Z,35.22
2022-12-03T09:07:36.278Z,35.76
2022-12-03T09:08:38.354Z,34.06
2022-12-03T09:09:40.269Z,38.01
2022-12-03T09:10:42.229Z,38.50
2022-12-03T09:11:44.386Z,34.60
2022-12-03T09:12:46.108Z,36.02
2022-12-03T09:13:47.851Z,35.01
2022-12-03T09:14:49.614Z,35.95
2022-12-03T09:15:51.405Z,38.32
2022-12-03T09:16:56.787Z,35.28
2022-12-03T09:17:58.650Z,37.40
2022-12-03T09:19:00.858Z,38.12
2022-12-03T09:20:03.497Z,39.72
2022-12-03T09:21:05.678Z,40.62
2022-12-03T09:22:07.391Z,40.79
2022-12-03T09:23:09.245Z,40.72
2022-12-03T09:24:11.292Z,39.45
2022-12-03T09:25:13.084Z,37.67
2022-12-03T09:26:14.890Z,37.39
2022-12-03T09:27:16.736Z,37.09
2022-12-03T09:28:18.813Z,38.74
2022-12-03T09:29:20.669Z,38.20
2022-12-03T09:30:23.012Z,35.87
2022-12-03T09:31:25.048Z,34.46
2022-12-03T09:32:26.900Z,35.31
2022-12-03T09:33:29.303Z,35.61
2022-12-03T09:34:31.210Z,38.21
2022-12-03T09:35:33.283Z,36.56
2022-12-03T09:36:35.224Z,36.97
2022-12-03T09:37:37.059Z,36.25
2022-12-03T09:38:41.905Z,34.98
2022-12-03T09:39:48.180Z,35.66
2022-12-03T09:40:50.127Z,36.42
2022-12-03T09:41:52.131Z,36.12
2022-12-03T09:42:58.490Z,37.33
2022-12-03T09:44:04.863Z,45.99
2022-12-03T09:45:11.172Z,41.27
2022-12-03T09:46:13.773Z,37.19
2022-12-03T09:47:15.657Z,35.79
2022-12-03T09:48:19.946Z,37.22
2022-12-03T09:49:21.995Z,59.06
2022-12-03T09:50:26.847Z,71.99
2022-12-03T09:51:34.814Z,61.38
2022-12-03T09:52:36.694Z,56.35
2022-12-03T09:53:41.487Z,47.70
2022-12-03T09:54:47.342Z,45.84
2022-12-03T09:55:50.529Z,57.77
2022-12-03T09:56:54.931Z,55.11
2022-12-03T09:57:57.622Z,50.15
2022-12-03T09:58:59.734Z,47.59
2022-12-03T10:00:01.531Z,48.91
2022-12-03T10:01:03.363Z,42.27
2022-12-03T10:02:20.139Z,43.36
2022-12-03T10:03:30.053Z,43.22
2022-12-03T10:04:32.114Z,44.02
2022-12-03T10:05:34.890Z,40.92
2022-12-03T10:06:41.076Z,36.44
2022-12-03T10:07:49.049Z,35.34
2022-12-03T10:08:56.668Z,37.69
2022-12-03T10:09:58.585Z,35.76
2022-12-03T10:11:00.503Z,36.31
2022-12-03T10:12:02.658Z,37.43
2022-12-03T10:13:07.041Z,38.67
2022-12-03T10:14:14.508Z,39.13
2022-12-03T10:15:21.791Z,42.51
2022-12-03T10:16:25.210Z,46.13
2022-12-03T10:17:31.925Z,44.47
2022-12-03T10:18:41.276Z,40.96
2022-12-03T10:19:44.673Z,40.73
2022-12-03T10:20:48.187Z,37.91
2022-12-03T10:21:50.047Z,35.51
2022-12-03T10:22:51.893Z,36.56
2022-12-03T10:24:24.795Z,37.53
2022-12-03T10:25:26.527Z,36.57
2022-12-03T10:26:40.665Z,37.30
2022-12-03T10:27:43.297Z,36.82
2022-12-03T10:28:46.917Z,38.08
2022-12-03T10:29:57.646Z,36.07
2022-12-03T10:31:00.552Z,37.76
2022-12-03T10:32:08.587Z,38.61
2022-12-03T10:33:19.064Z,38.93
2022-12-03T10:34:30.568Z,38.41
2022-12-03T10:35:43.581Z,37.97
2022-12-03T10:36:45.313Z,41.14
2022-12-03T10:38:07.385Z,41.43
2022-12-03T10:39:15.404Z,44.03
2022-12-03T10:40:25.242Z,46.77
2022-12-03T10:41:29.107Z,44.37
2022-12-03T10:42:33.491Z,42.27
2022-12-03T10:43:35.490Z,38.03
2022-12-03T10:44:37.237Z,35.07
2022-12-03T10:45:39.043Z,34.82
2022-12-03T10:46:41.218Z,33.04
2022-12-03T10:48:01.676Z,34.15
2022-12-03T10:49:10.344Z,35.98
2022-12-03T10:50:19.539Z,37.20
2022-12-03T10:51:21.896Z,36.53
2022-12-03T10:52:26.123Z,34.65
2022-12-03T10:53:32.334Z,36.08
2022-12-03T10:54:35.837Z,37.11
2022-12-03T10:55:41.198Z,36.84
2022-12-03T10:56:43.796Z,40.03
2022-12-03T10:57:46.396Z,38.72
2022-12-03T10:58:48.409Z,39.56
2022-12-03T10:59:52.355Z,39.96
2022-12-03T11:00:57.567Z,40.78
2022-12-03T11:01:59.871Z,43.10
2022-12-03T11:03:01.866Z,45.39
2022-12-03T11:04:05.290Z,47.92
2022-12-03T11:05:07.604Z,39.51
2022-12-03T11:06:15.805Z,47.88
2022-12-03T11:07:21.002Z,52.29
2022-12-03T11:08:35.510Z,47.83
2022-12-03T11:09:37.587Z,43.54
2022-12-03T11:10:39.410Z,36.85
2022-12-03T11:11:41.338Z,34.30
2022-12-03T11:13:21.337Z,45.81
2022-12-03T11:14:54.947Z,47.01
2022-12-03T11:15:57.542Z,109.58
2022-12-03T11:16:59.295Z,85.79
2022-12-03T11:18:01.021Z,55.89
2022-12-03T11:19:03.254Z,58.28
2022-12-03T11:20:18.057Z,53.70
2022-12-03T11:21:25.207Z,55.93
2022-12-03T11:22:40.469Z,59.01
2022-12-03T11:23:44.898Z,60.37
2022-12-03T11:24:46.769Z,59.25
2022-12-03T11:25:50.653Z,55.12
2022-12-03T11:26:52.481Z,58.53
2022-12-03T11:28:12.311Z,52.10
2022-12-03T11:29:14.773Z,47.95
2022-12-03T11:30:48.597Z,48.47
2022-12-03T11:31:50.612Z,53.21
2022-12-03T11:33:00.904Z,52.86
2022-12-03T11:34:17.942Z,39.78
2022-12-03T11:35:25.452Z,41.11
2022-12-03T11:36:47.790Z,203.74
2022-12-03T11:37:49.144Z,130.04
2022-12-03T11:38:54.079Z,65.48
2022-12-03T11:40:04.779Z,58.69
2022-12-03T11:41:17.736Z,138.94
2022-12-03T11:42:26.258Z,128.11
2022-12-03T11:43:52.886Z,75.86
2022-12-03T11:45:05.724Z,59.09
2022-12-03T11:46:10.292Z,54.68
2022-12-03T11:47:16.353Z,53.13
2022-12-03T11:48:18.766Z,46.45
2022-12-03T11:49:25.977Z,46.31
2022-12-03T11:50:36.109Z,41.66
2022-12-03T11:51:44.917Z,41.82
2022-12-03T11:53:08.794Z,40.21
2022-12-03T11:54:17.624Z,42.01
2022-12-03T11:55:25.213Z,42.46
2022-12-03T11:56:29.568Z,45.59
2022-12-03T11:57:37.590Z,44.76
2022-12-03T11:58:43.652Z,44.79
2022-12-03T12:00:03.240Z,48.82
2022-12-03T12:01:15.850Z,50.08
2022-12-03T12:02:20.695Z,49.42
2022-12-03T12:03:47.805Z,42.50
2022-12-03T12:04:49.675Z,41.82
2022-12-03T12:06:14.515Z,41.99
2022-12-03T12:07:36.191Z,41.66
2022-12-03T12:09:03.986Z,42.31
2022-12-03T12:10:06.214Z,38.40
2022-12-03T12:11:19.781Z,37.76
2022-12-03T12:12:30.655Z,40.11
2022-12-03T12:13:32.268Z,41.36
2022-12-03T12:14:34.031Z,39.43
2022-12-03T12:15:38.512Z,40.31
2022-12-03T12:16:52.744Z,56.49
2022-12-03T12:17:54.833Z,65.37
2022-12-03T12:18:56.574Z,51.02
2022-12-03T12:20:22.491Z,50.15
2022-12-03T12:21:49.951Z,43.72
2022-12-03T12:22:53.629Z,44.94
2022-12-03T12:23:55.369Z,45.69
2022-12-03T12:25:03.054Z,45.16
2022-12-03T12:26:07.921Z,47.45
2022-12-03T12:27:12.320Z,42.23
2022-12-03T12:28:14.133Z,41.49
2022-12-03T12:29:15.906Z,48.23
2022-12-03T12:30:21.653Z,40.11
2022-12-03T12:31:23.493Z,38.00
2022-12-03T12:32:31.439Z,38.34
2022-12-03T12:33:35.366Z,36.07
2022-12-03T12:34:38.987Z,38.27
2022-12-03T12:35:41.167Z,38.98
2022-12-03T12:36:42.905Z,39.05
2022-12-03T12:38:03.016Z,38.44
2022-12-03T12:39:12.140Z,39.43
2022-12-03T12:40:17.666Z,41.76
2022-12-03T12:41:19.457Z,41.52
2022-12-03T12:42:30.282Z,41.08
2022-12-03T12:43:33.797Z,47.81
2022-12-03T12:44:35.620Z,54.69
2022-12-03T12:45:41.487Z,55.52
2022-12-03T12:46:48.435Z,52.96
2022-12-03T12:48:01.148Z,49.66
2022-12-03T12:49:13.878Z,48.56
2022-12-03T12:50:17.547Z,44.83
2022-12-03T12:51:19.355Z,41.07
2022-12-03T12:52:21.242Z,40.13
2022-12-03T12:53:26.990Z,37.61
2022-12-03T12:54:28.753Z,37.15
2022-12-03T12:55:30.486Z,36.74
2022-12-03T12:56:33.258Z,36.91
2022-12-03T12:57:35.178Z,39.03
2022-12-03T12:58:37.157Z,39.01
2022-12-03T12:59:38.924Z,40.61
2022-12-03T13:00:40.799Z,40.75
2022-12-03T13:01:45.030Z,38.74
2022-12-03T13:03:04.281Z,40.65
2022-12-03T13:04:20.956Z,40.70
2022-12-03T13:05:24.019Z,40.62
2022-12-03T13:06:28.515Z,40.67
2022-12-03T13:07:32.246Z,41.72
2022-12-03T13:08:42.743Z,44.65
2022-12-03T13:09:44.736Z,52.33
2022-12-03T13:10:47.088Z,50.25
2022-12-03T13:11:58.483Z,56.63
2022-12-03T13:13:21.526Z,65.83
2022-12-03T13:14:31.872Z,59.61
2022-12-03T13:15:45.016Z,60.99
2022-12-03T13:16:49.995Z,66.05
2022-12-03T13:17:51.761Z,61.44
2022-12-03T13:18:55.829Z,58.04
2022-12-03T13:20:15.491Z,61.73
2022-12-03T13:21:29.889Z,59.17
2022-12-03T13:22:31.645Z,56.43
2022-12-03T13:23:35.370Z,56.39
2022-12-03T13:24:58.590Z,49.12
2022-12-03T13:26:21.450Z,45.32
2022-12-03T13:27:32.720Z,48.20
2022-12-03T13:28:36.118Z,53.59
2022-12-03T13:29:37.940Z,52.86
2022-12-03T13:30:40.060Z,52.53
2022-12-03T13:31:58.854Z,55.36
2022-12-03T13:33:13.725Z,50.76
2022-12-03T13:34:28.211Z,60.38
2022-12-03T13:35:31.673Z,51.90
2022-12-03T13:36:43.053Z,56.04
2022-12-03T13:37:44.997Z,103.38
2022-12-03T13:38:47.596Z,81.53
2022-12-03T13:39:52.550Z,58.25
2022-12-03T13:41:01.371Z,56.38
2022-12-03T13:42:41.432Z,56.75
2022-12-03T13:43:44.565Z,50.46
2022-12-03T13:44:49.365Z,84.01
2022-12-03T13:45:54.272Z,60.45
2022-12-03T13:46:56.260Z,52.14
2022-12-03T13:48:13.640Z,48.74
2022-12-03T13:49:24.062Z,44.79
2022-12-03T13:50:37.711Z,45.62
2022-12-03T13:51:40.410Z,51.58
2022-12-03T13:52:42.297Z,48.78
2022-12-03T13:53:44.196Z,54.39
2022-12-03T13:54:49.890Z,55.27
2022-12-03T13:56:04.583Z,54.02
2022-12-03T13:57:06.627Z,71.97